Plano, Idaho
Current Conditions -  °F | °C
As of 2:53 PM on Monday 24 Nov 2014 (Local Time) from KRXE Reporting Station
Clear Clear  
Wind Chill: 33°   Ceiling: Unl
Heat Index: 38°   Visibility: 10mi
Dew Point: 11°   Wind: 6mph
Humidity: 33%   Direction: 250°WSW
Pressure: 30.29"   Gusts: NA
Location:  43.7568°N, 111.624°W
Report Text: KRXE 242153Z AUTO 25005KT 10SM CLR 03/M12 A3029 RMK AO2 SLP282 T00331117
Loading
Personal Weather Stations






























Interactive Weather Map New forecast layout! Learn more

10-Day Weather Forecast

Advertisements
Track Severe Weather on mobile